sensor_id;sensor_type;location;lat;lon;timestamp;temperature;humidity
2130;DHT22;1071;52.544;13.374;2023-06-22T00:00:20;23.50;99.90
2130;DHT22;1071;52.544;13.374;2023-06-22T00:02:50;23.50;99.90
2130;DHT22;1071;52.544;13.374;2023-06-22T00:05:17;23.50;99.90
2130;DHT22;1071;52.544;13.374;2023-06-22T00:07:44;23.50;99.90
2130;DHT22;1071;52.544;13.374;2023-06-22T00:10:11;23.40;99.90
2130;DHT22;1071;52.544;13.374;2023-06-22T00:12:38;23.40;99.90
2130;DHT22;1071;52.544;13.374;2023-06-22T00:15:06;23.40;99.90
2130;DHT22;1071;52.544;13.374;2023-06-22T00:17:34;23.30;99.90
2130;DHT22;1071;52.544;13.374;2023-06-22T00:20:02;23.30;99.90
2130;DHT22;1071;52.544;13.374;2023-06-22T00:22:38;23.30;99.90
2130;DHT22;1071;52.544;13.374;2023-06-22T00:25:06;23.30;99.90
2130;DHT22;1071;52.544;13.374;2023-06-22T00:27:34;23.30;99.90
2130;DHT22;1071;52.544;13.374;2023-06-22T00:30:04;23.30;99.90
2130;DHT22;1071;52.544;13.374;2023-06-22T00:32:34;23.20;99.90
2130;DHT22;1071;52.544;13.374;2023-06-22T00:35:02;23.20;99.90
2130;DHT22;1071;52.544;13.374;2023-06-22T00:37:29;23.20;99.90
2130;DHT22;1071;52.544;13.374;2023-06-22T00:39:56;23.10;99.90
2130;DHT22;1071;52.544;13.374;2023-06-22T00:42:23;23.10;99.90
2130;DHT22;1071;52.544;13.374;2023-06-22T00:44:50;23.10;99.90
2130;DHT22;1071;52.544;13.374;2023-06-22T00:47:18;23.10;99.90
2130;DHT22;1071;52.544;13.374;2023-06-22T00:49:47;23.00;99.90
2130;DHT22;1071;52.544;13.374;2023-06-22T00:52:15;23.00;99.90
2130;DHT22;1071;52.544;13.374;2023-06-22T00:54:46;23.00;99.90
2130;DHT22;1071;52.544;13.374;2023-06-22T00:57:16;23.00;99.90
2130;DHT22;1071;52.544;13.374;2023-06-22T00:59:43;23.00;99.90
2130;DHT22;1071;52.544;13.374;2023-06-22T01:02:12;22.90;99.90
2130;DHT22;1071;52.544;13.374;2023-06-22T01:04:40;22.90;99.90
2130;DHT22;1071;52.544;13.374;2023-06-22T01:07:16;22.90;99.90
2130;DHT22;1071;52.544;13.374;2023-06-22T01:09:54;22.90;99.90
2130;DHT22;1071;52.544;13.374;2023-06-22T01:12:27;22.80;99.90
2130;DHT22;1071;52.544;13.374;2023-06-22T01:15:07;22.80;99.90
2130;DHT22;1071;52.544;13.374;2023-06-22T01:17:40;22.80;99.90
2130;DHT22;1071;52.544;13.374;2023-06-22T01:20:10;22.80;99.90
2130;DHT22;1071;52.544;13.374;2023-06-22T01:22:54;22.80;99.90
2130;DHT22;1071;52.544;13.374;2023-06-22T01:25:28;22.80;99.90
2130;DHT22;1071;52.544;13.374;2023-06-22T01:28:10;22.80;99.90
2130;DHT22;1071;52.544;13.374;2023-06-22T01:30:45;22.70;99.90
2130;DHT22;1071;52.544;13.374;2023-06-22T01:33:14;22.70;99.90
2130;DHT22;1071;52.544;13.374;2023-06-22T01:35:45;22.70;99.90
2130;DHT22;1071;52.544;13.374;2023-06-22T01:38:12;22.60;99.90
2130;DHT22;1071;52.544;13.374;2023-06-22T01:40:39;22.60;99.90
2130;DHT22;1071;52.544;13.374;2023-06-22T01:43:07;22.60;99.90
2130;DHT22;1071;52.544;13.374;2023-06-22T01:45:35;22.60;99.90
2130;DHT22;1071;52.544;13.374;2023-06-22T01:48:07;22.60;99.90
2130;DHT22;1071;52.544;13.374;2023-06-22T01:50:35;22.60;99.90
2130;DHT22;1071;52.544;13.374;2023-06-22T01:53:02;22.50;99.90
2130;DHT22;1071;52.544;13.374;2023-06-22T01:55:30;22.50;99.90
2130;DHT22;1071;52.544;13.374;2023-06-22T01:57:57;22.50;99.90
2130;DHT22;1071;52.544;13.374;2023-06-22T02:00:25;22.50;99.90
2130;DHT22;1071;52.544;13.374;2023-06-22T02:03:00;22.50;99.90
2130;DHT22;1071;52.544;13.374;2023-06-22T02:05:34;22.50;99.90
2130;DHT22;1071;52.544;13.374;2023-06-22T02:08:08;22.40;99.90
2130;DHT22;1071;52.544;13.374;2023-06-22T02:10:37;22.40;99.90
2130;DHT22;1071;52.544;13.374;2023-06-22T02:13:07;22.40;99.90
2130;DHT22;1071;52.544;13.374;2023-06-22T02:15:35;22.40;99.90
2130;DHT22;1071;52.544;13.374;2023-06-22T02:18:03;22.40;99.90
2130;DHT22;1071;52.544;13.374;2023-06-22T02:20:32;22.40;99.90
2130;DHT22;1071;52.544;13.374;2023-06-22T02:22:59;22.30;99.90
2130;DHT22;1071;52.544;13.374;2023-06-22T02:25:26;22.30;99.90
2130;DHT22;1071;52.544;13.374;2023-06-22T02:27:53;22.30;99.90
2130;DHT22;1071;52.544;13.374;2023-06-22T02:30:21;22.30;99.90
2130;DHT22;1071;52.544;13.374;2023-06-22T02:32:48;22.30;99.90
2130;DHT22;1071;52.544;13.374;2023-06-22T02:35:23;22.30;99.90
2130;DHT22;1071;52.544;13.374;2023-06-22T02:37:54;22.30;99.90
2130;DHT22;1071;52.544;13.374;2023-06-22T02:40:23;22.30;99.90
2130;DHT22;1071;52.544;13.374;2023-06-22T02:42:50;22.30;99.90
2130;DHT22;1071;52.544;13.374;2023-06-22T02:45:17;22.30;99.90
2130;DHT22;1071;52.544;13.374;2023-06-22T02:47:44;22.30;99.90
2130;DHT22;1071;52.544;13.374;2023-06-22T02:50:13;22.30;99.90
2130;DHT22;1071;52.544;13.374;2023-06-22T02:52:44;22.30;99.90
2130;DHT22;1071;52.544;13.374;2023-06-22T02:55:13;22.30;99.90
2130;DHT22;1071;52.544;13.374;2023-06-22T02:57:40;22.30;99.90
2130;DHT22;1071;52.544;13.374;2023-06-22T03:00:17;22.30;99.90
2130;DHT22;1071;52.544;13.374;2023-06-22T03:03:01;22.30;99.90
2130;DHT22;1071;52.544;13.374;2023-06-22T03:05:29;22.30;99.90
2130;DHT22;1071;52.544;13.374;2023-06-22T03:07:58;22.30;99.90
2130;DHT22;1071;52.544;13.374;2023-06-22T03:10:26;22.30;99.90
2130;DHT22;1071;52.544;13.374;2023-06-22T03:12:54;22.30;99.90
2130;DHT22;1071;52.544;13.374;2023-06-22T03:15:21;22.30;99.90
2130;DHT22;1071;52.544;13.374;2023-06-22T03:17:51;22.30;99.90
2130;DHT22;1071;52.544;13.374;2023-06-22T03:20:18;22.40;99.90
2130;DHT22;1071;52.544;13.374;2023-06-22T03:22:45;22.40;99.90
2130;DHT22;1071;52.544;13.374;2023-06-22T03:25:14;22.40;99.90
2130;DHT22;1071;52.544;13.374;2023-06-22T03:27:44;22.30;99.90
2130;DHT22;1071;52.544;13.374;2023-06-22T03:30:12;22.40;99.90
2130;DHT22;1071;52.544;13.374;2023-06-22T03:32:39;22.40;99.90
2130;DHT22;1071;52.544;13.374;2023-06-22T03:35:07;22.40;99.90
2130;DHT22;1071;52.544;13.374;2023-06-22T03:37:34;22.40;99.90
2130;DHT22;1071;52.544;13.374;2023-06-22T03:40:05;22.40;99.90
2130;DHT22;1071;52.544;13.374;2023-06-22T03:42:33;22.40;99.90
2130;DHT22;1071;52.544;13.374;2023-06-22T03:45:02;22.40;99.90
2130;DHT22;1071;52.544;13.374;2023-06-22T03:47:30;22.40;99.90
2130;DHT22;1071;52.544;13.374;2023-06-22T03:49:57;22.50;99.90
2130;DHT22;1071;52.544;13.374;2023-06-22T03:52:24;22.50;99.90
2130;DHT22;1071;52.544;13.374;2023-06-22T03:54:55;22.50;99.90
2130;DHT22;1071;52.544;13.374;2023-06-22T03:57:22;22.40;99.90
2130;DHT22;1071;52.544;13.374;2023-06-22T03:59:50;22.40;99.90
2130;DHT22;1071;52.544;13.374;2023-06-22T04:02:18;22.40;99.90
2130;DHT22;1071;52.544;13.374;2023-06-22T04:04:45;22.40;99.90
2130;DHT22;1071;52.544;13.374;2023-06-22T04:07:12;22.40;99.90
2130;DHT22;1071;52.544;13.374;2023-06-22T04:09:41;22.40;99.90
2130;DHT22;1071;52.544;13.374;2023-06-22T04:12:10;22.40;99.90
2130;DHT22;1071;52.544;13.374;2023-06-22T04:14:40;22.40;99.90
2130;DHT22;1071;52.544;13.374;2023-06-22T04:17:13;22.50;99.90
2130;DHT22;1071;52.544;13.374;2023-06-22T04:19:42;22.50;99.90
2130;DHT22;1071;52.544;13.374;2023-06-22T04:22:10;22.50;99.90
2130;DHT22;1071;52.544;13.374;2023-06-22T04:24:37;22.50;99.90
2130;DHT22;1071;52.544;13.374;2023-06-22T04:27:05;22.60;99.90
2130;DHT22;1071;52.544;13.374;2023-06-22T04:29:32;22.60;99.90
2130;DHT22;1071;52.544;13.374;2023-06-22T04:31:59;22.60;99.90
2130;DHT22;1071;52.544;13.374;2023-06-22T04:34:29;22.70;99.90
2130;DHT22;1071;52.544;13.374;2023-06-22T04:37:00;22.70;99.90
2130;DHT22;1071;52.544;13.374;2023-06-22T04:39:27;22.70;99.90
2130;DHT22;1071;52.544;13.374;2023-06-22T04:41:54;22.80;99.90
2130;DHT22;1071;52.544;13.374;2023-06-22T04:44:25;22.90;99.90
2130;DHT22;1071;52.544;13.374;2023-06-22T04:46:54;22.90;99.90
2130;DHT22;1071;52.544;13.374;2023-06-22T04:49:25;22.90;99.90
2130;DHT22;1071;52.544;13.374;2023-06-22T04:52:00;23.00;99.90
2130;DHT22;1071;52.544;13.374;2023-06-22T04:54:27;23.00;99.90
2130;DHT22;1071;52.544;13.374;2023-06-22T04:56:54;23.10;99.90
2130;DHT22;1071;52.544;13.374;2023-06-22T04:59:23;23.10;99.90
2130;DHT22;1071;52.544;13.374;2023-06-22T05:01:53;23.10;99.90
2130;DHT22;1071;52.544;13.374;2023-06-22T05:04:21;23.20;99.90
2130;DHT22;1071;52.544;13.374;2023-06-22T05:06:48;23.30;99.90
2130;DHT22;1071;52.544;13.374;2023-06-22T05:09:17;23.40;99.90
2130;DHT22;1071;52.544;13.374;2023-06-22T05:11:44;23.40;99.90
2130;DHT22;1071;52.544;13.374;2023-06-22T05:14:13;23.60;99.90
2130;DHT22;1071;52.544;13.374;2023-06-22T05:16:46;23.70;99.90
2130;DHT22;1071;52.544;13.374;2023-06-22T05:19:13;23.70;99.90
2130;DHT22;1071;52.544;13.374;2023-06-22T05:21:43;23.80;99.90
2130;DHT22;1071;52.544;13.374;2023-06-22T05:24:10;23.80;99.90
2130;DHT22;1071;52.544;13.374;2023-06-22T05:26:38;23.80;99.90
2130;DHT22;1071;52.544;13.374;2023-06-22T05:29:05;23.90;99.90
2130;DHT22;1071;52.544;13.374;2023-06-22T05:31:38;23.90;99.90
2130;DHT22;1071;52.544;13.374;2023-06-22T05:34:13;23.90;99.90
2130;DHT22;1071;52.544;13.374;2023-06-22T05:36:40;24.00;99.90
2130;DHT22;1071;52.544;13.374;2023-06-22T05:39:12;24.00;99.90
2130;DHT22;1071;52.544;13.374;2023-06-22T05:41:45;24.10;99.90
2130;DHT22;1071;52.544;13.374;2023-06-22T05:44:13;24.10;99.90
2130;DHT22;1071;52.544;13.374;2023-06-22T05:46:47;24.20;99.90
2130;DHT22;1071;52.544;13.374;2023-06-22T05:49:14;24.20;99.90
2130;DHT22;1071;52.544;13.374;2023-06-22T05:51:42;24.20;99.90
2130;DHT22;1071;52.544;13.374;2023-06-22T05:54:12;24.30;99.90
2130;DHT22;1071;52.544;13.374;2023-06-22T05:56:41;24.30;99.90
2130;DHT22;1071;52.544;13.374;2023-06-22T06:02:19;24.50;99.90
2130;DHT22;1071;52.544;13.374;2023-06-22T06:04:46;24.60;99.90
2130;DHT22;1071;52.544;13.374;2023-06-22T06:07:27;24.60;99.90
2130;DHT22;1071;52.544;13.374;2023-06-22T06:10:03;24.70;99.90
2130;DHT22;1071;52.544;13.374;2023-06-22T06:12:31;24.80;99.90
2130;DHT22;1071;52.544;13.374;2023-06-22T06:15:02;24.80;99.90
2130;DHT22;1071;52.544;13.374;2023-06-22T06:17:29;24.90;99.90
2130;DHT22;1071;52.544;13.374;2023-06-22T06:19:58;24.90;99.90
2130;DHT22;1071;52.544;13.374;2023-06-22T06:22:30;25.00;99.90
2130;DHT22;1071;52.544;13.374;2023-06-22T06:24:57;25.10;99.90
2130;DHT22;1071;52.544;13.374;2023-06-22T06:27:38;25.20;99.90
2130;DHT22;1071;52.544;13.374;2023-06-22T06:30:14;25.30;99.90
2130;DHT22;1071;52.544;13.374;2023-06-22T06:32:43;25.40;99.90
2130;DHT22;1071;52.544;13.374;2023-06-22T06:35:12;25.60;99.90
2130;DHT22;1071;52.544;13.374;2023-06-22T06:37:41;25.80;99.90
2130;DHT22;1071;52.544;13.374;2023-06-22T06:40:10;25.90;99.90
2130;DHT22;1071;52.544;13.374;2023-06-22T06:42:41;26.10;99.90
2130;DHT22;1071;52.544;13.374;2023-06-22T06:45:10;26.20;99.90
2130;DHT22;1071;52.544;13.374;2023-06-22T06:47:42;26.30;99.90
2130;DHT22;1071;52.544;13.374;2023-06-22T06:50:12;26.40;99.90
2130;DHT22;1071;52.544;13.374;2023-06-22T06:52:39;26.50;99.90
2130;DHT22;1071;52.544;13.374;2023-06-22T06:55:09;26.60;99.90
2130;DHT22;1071;52.544;13.374;2023-06-22T06:57:39;26.60;99.90
2130;DHT22;1071;52.544;13.374;2023-06-22T07:00:11;26.70;99.90
2130;DHT22;1071;52.544;13.374;2023-06-22T07:03:10;26.90;99.90
2130;DHT22;1071;52.544;13.374;2023-06-22T07:05:38;27.10;99.90
2130;DHT22;1071;52.544;13.374;2023-06-22T07:08:05;27.20;99.90
2130;DHT22;1071;52.544;13.374;2023-06-22T07:10:31;27.30;99.90
2130;DHT22;1071;52.544;13.374;2023-06-22T07:12:59;27.40;99.90
2130;DHT22;1071;52.544;13.374;2023-06-22T07:15:29;27.60;99.90
2130;DHT22;1071;52.544;13.374;2023-06-22T07:18:00;27.70;98.70
2130;DHT22;1071;52.544;13.374;2023-06-22T07:20:29;27.80;96.90
2130;DHT22;1071;52.544;13.374;2023-06-22T07:22:56;27.90;96.00
2130;DHT22;1071;52.544;13.374;2023-06-22T07:25:29;27.90;96.10
2130;DHT22;1071;52.544;13.374;2023-06-22T07:28:00;28.00;96.10
2130;DHT22;1071;52.544;13.374;2023-06-22T07:30:28;28.00;94.50
2130;DHT22;1071;52.544;13.374;2023-06-22T07:32:55;28.20;94.70
2130;DHT22;1071;52.544;13.374;2023-06-22T07:35:30;28.30;94.30
2130;DHT22;1071;52.544;13.374;2023-06-22T07:37:58;28.30;94.00
2130;DHT22;1071;52.544;13.374;2023-06-22T07:40:26;28.40;93.80
2130;DHT22;1071;52.544;13.374;2023-06-22T07:42:53;28.50;93.90
2130;DHT22;1071;52.544;13.374;2023-06-22T07:45:24;28.50;93.00
2130;DHT22;1071;52.544;13.374;2023-06-22T07:47:51;28.50;92.10
2130;DHT22;1071;52.544;13.374;2023-06-22T07:50:21;28.70;92.30
2130;DHT22;1071;52.544;13.374;2023-06-22T07:52:49;28.70;92.10
2130;DHT22;1071;52.544;13.374;2023-06-22T07:55:18;28.80;91.40
2130;DHT22;1071;52.544;13.374;2023-06-22T07:57:48;28.90;92.20
2130;DHT22;1071;52.544;13.374;2023-06-22T08:00:17;29.00;91.30
2130;DHT22;1071;52.544;13.374;2023-06-22T08:02:46;29.00;90.80
2130;DHT22;1071;52.544;13.374;2023-06-22T08:05:14;29.00;91.10
2130;DHT22;1071;52.544;13.374;2023-06-22T08:07:43;29.00;89.90
2130;DHT22;1071;52.544;13.374;2023-06-22T08:10:13;29.00;88.80
2130;DHT22;1071;52.544;13.374;2023-06-22T08:12:42;28.90;87.70
2130;DHT22;1071;52.544;13.374;2023-06-22T08:15:09;28.90;87.90
2130;DHT22;1071;52.544;13.374;2023-06-22T08:17:37;28.90;89.10
2130;DHT22;1071;52.544;13.374;2023-06-22T08:20:05;28.90;88.40
2130;DHT22;1071;52.544;13.374;2023-06-22T08:22:41;28.90;88.70
2130;DHT22;1071;52.544;13.374;2023-06-22T08:25:09;28.90;88.20
2130;DHT22;1071;52.544;13.374;2023-06-22T08:27:38;28.80;87.80
2130;DHT22;1071;52.544;13.374;2023-06-22T08:30:06;28.80;87.40
2130;DHT22;1071;52.544;13.374;2023-06-22T08:32:37;28.70;87.60
2130;DHT22;1071;52.544;13.374;2023-06-22T08:35:08;28.60;87.30
2130;DHT22;1071;52.544;13.374;2023-06-22T08:37:37;28.50;88.00
2130;DHT22;1071;52.544;13.374;2023-06-22T08:40:09;28.50;87.70
2130;DHT22;1071;52.544;13.374;2023-06-22T08:42:40;28.40;87.30
2130;DHT22;1071;52.544;13.374;2023-06-22T08:45:10;28.40;86.40
2130;DHT22;1071;52.544;13.374;2023-06-22T08:47:38;28.30;87.00
2130;DHT22;1071;52.544;13.374;2023-06-22T08:50:06;28.20;87.40
2130;DHT22;1071;52.544;13.374;2023-06-22T08:52:34;28.20;87.80
2130;DHT22;1071;52.544;13.374;2023-06-22T08:55:04;28.10;86.50
2130;DHT22;1071;52.544;13.374;2023-06-22T08:57:31;28.10;85.60
2130;DHT22;1071;52.544;13.374;2023-06-22T09:00:01;28.10;85.40
2130;DHT22;1071;52.544;13.374;2023-06-22T09:02:39;28.00;85.80
2130;DHT22;1071;52.544;13.374;2023-06-22T09:08:35;28.00;86.60
2130;DHT22;1071;52.544;13.374;2023-06-22T09:11:02;27.90;87.40
2130;DHT22;1071;52.544;13.374;2023-06-22T09:13:33;28.00;87.50
2130;DHT22;1071;52.544;13.374;2023-06-22T09:16:10;28.00;87.20
2130;DHT22;1071;52.544;13.374;2023-06-22T09:18:39;28.10;86.70
2130;DHT22;1071;52.544;13.374;2023-06-22T09:21:12;28.20;86.50
2130;DHT22;1071;52.544;13.374;2023-06-22T09:23:48;28.10;86.70
2130;DHT22;1071;52.544;13.374;2023-06-22T09:26:16;28.20;86.50
2130;DHT22;1071;52.544;13.374;2023-06-22T09:28:43;28.20;85.80
2130;DHT22;1071;52.544;13.374;2023-06-22T09:31:12;28.10;85.00
2130;DHT22;1071;52.544;13.374;2023-06-22T09:33:40;28.20;84.80
2130;DHT22;1071;52.544;13.374;2023-06-22T09:36:07;28.20;84.80
2130;DHT22;1071;52.544;13.374;2023-06-22T09:38:54;28.20;85.60
2130;DHT22;1071;52.544;13.374;2023-06-22T09:44:51;28.30;83.60
2130;DHT22;1071;52.544;13.374;2023-06-22T09:47:20;28.20;82.60
2130;DHT22;1071;52.544;13.374;2023-06-22T09:49:55;28.20;81.70
2130;DHT22;1071;52.544;13.374;2023-06-22T09:52:24;28.20;79.80
2130;DHT22;1071;52.544;13.374;2023-06-22T09:54:51;28.20;80.80
2130;DHT22;1071;52.544;13.374;2023-06-22T09:57:20;28.10;81.70
2130;DHT22;1071;52.544;13.374;2023-06-22T09:59:47;28.10;82.00
2130;DHT22;1071;52.544;13.374;2023-06-22T10:02:14;28.20;82.10
2130;DHT22;1071;52.544;13.374;2023-06-22T10:07:33;28.10;82.40
2130;DHT22;1071;52.544;13.374;2023-06-22T10:10:05;28.20;83.00
2130;DHT22;1071;52.544;13.374;2023-06-22T10:12:32;28.10;82.40
2130;DHT22;1071;52.544;13.374;2023-06-22T10:14:59;28.20;82.70
2130;DHT22;1071;52.544;13.374;2023-06-22T10:17:29;28.20;83.00
2130;DHT22;1071;52.544;13.374;2023-06-22T10:20:02;28.20;83.50
2130;DHT22;1071;52.544;13.374;2023-06-22T10:22:36;28.20;83.90
2130;DHT22;1071;52.544;13.374;2023-06-22T10:25:08;28.20;84.30
2130;DHT22;1071;52.544;13.374;2023-06-22T10:28:10;28.30;83.90
2130;DHT22;1071;52.544;13.374;2023-06-22T10:30:38;28.40;83.90
2130;DHT22;1071;52.544;13.374;2023-06-22T10:33:06;28.50;84.00
2130;DHT22;1071;52.544;13.374;2023-06-22T10:35:36;28.50;83.20
2130;DHT22;1071;52.544;13.374;2023-06-22T10:38:04;28.50;83.80
2130;DHT22;1071;52.544;13.374;2023-06-22T10:40:32;28.60;84.20
2130;DHT22;1071;52.544;13.374;2023-06-22T10:43:01;28.70;84.30
2130;DHT22;1071;52.544;13.374;2023-06-22T10:45:28;28.70;82.80
2130;DHT22;1071;52.544;13.374;2023-06-22T10:47:57;28.70;82.90
2130;DHT22;1071;52.544;13.374;2023-06-22T10:50:25;28.80;83.70
2130;DHT22;1071;52.544;13.374;2023-06-22T10:52:54;28.90;84.50
2130;DHT22;1071;52.544;13.374;2023-06-22T10:55:21;28.80;82.80
2130;DHT22;1071;52.544;13.374;2023-06-22T10:57:51;28.80;83.10
2130;DHT22;1071;52.544;13.374;2023-06-22T11:00:18;28.70;82.50
2130;DHT22;1071;52.544;13.374;2023-06-22T11:02:47;28.80;82.70
2130;DHT22;1071;52.544;13.374;2023-06-22T11:05:19;28.70;82.90
2130;DHT22;1071;52.544;13.374;2023-06-22T11:07:47;28.70;83.10
2130;DHT22;1071;52.544;13.374;2023-06-22T11:10:16;28.70;83.40
2130;DHT22;1071;52.544;13.374;2023-06-22T11:12:47;28.70;83.50
2130;DHT22;1071;52.544;13.374;2023-06-22T11:15:17;28.70;82.00
2130;DHT22;1071;52.544;13.374;2023-06-22T11:17:56;28.70;82.90
2130;DHT22;1071;52.544;13.374;2023-06-22T11:20:26;28.80;82.30
2130;DHT22;1071;52.544;13.374;2023-06-22T11:22:53;28.80;81.00
2130;DHT22;1071;52.544;13.374;2023-06-22T11:25:22;28.80;81.50
2130;DHT22;1071;52.544;13.374;2023-06-22T11:27:50;28.80;81.70
2130;DHT22;1071;52.544;13.374;2023-06-22T11:30:23;28.70;81.50
2130;DHT22;1071;52.544;13.374;2023-06-22T11:32:54;28.80;81.60
2130;DHT22;1071;52.544;13.374;2023-06-22T11:35:21;28.70;81.10
2130;DHT22;1071;52.544;13.374;2023-06-22T11:37:59;28.80;81.70
2130;DHT22;1071;52.544;13.374;2023-06-22T11:40:54;28.90;81.90
2130;DHT22;1071;52.544;13.374;2023-06-22T11:43:22;29.00;81.20
2130;DHT22;1071;52.544;13.374;2023-06-22T11:45:49;29.10;80.70
2130;DHT22;1071;52.544;13.374;2023-06-22T11:48:23;29.00;79.40
2130;DHT22;1071;52.544;13.374;2023-06-22T11:50:51;29.10;79.70
2130;DHT22;1071;52.544;13.374;2023-06-22T11:53:18;29.10;79.60
2130;DHT22;1071;52.544;13.374;2023-06-22T11:55:45;29.20;79.70
2130;DHT22;1071;52.544;13.374;2023-06-22T11:58:18;29.20;79.80
2130;DHT22;1071;52.544;13.374;2023-06-22T12:00:45;29.20;79.60
2130;DHT22;1071;52.544;13.374;2023-06-22T12:03:12;29.20;79.40
2130;DHT22;1071;52.544;13.374;2023-06-22T12:05:45;29.10;79.00
2130;DHT22;1071;52.544;13.374;2023-06-22T12:08:12;29.10;79.00
2130;DHT22;1071;52.544;13.374;2023-06-22T12:10:40;29.00;79.30
2130;DHT22;1071;52.544;13.374;2023-06-22T12:13:09;29.00;78.90
2130;DHT22;1071;52.544;13.374;2023-06-22T12:15:38;29.00;79.20
2130;DHT22;1071;52.544;13.374;2023-06-22T12:18:05;29.10;79.40
2130;DHT22;1071;52.544;13.374;2023-06-22T12:20:34;29.00;78.90
2130;DHT22;1071;52.544;13.374;2023-06-22T12:23:11;29.00;78.50
2130;DHT22;1071;52.544;13.374;2023-06-22T12:25:44;29.00;78.90
2130;DHT22;1071;52.544;13.374;2023-06-22T12:28:11;29.10;78.70
2130;DHT22;1071;52.544;13.374;2023-06-22T12:30:40;29.10;78.90
2130;DHT22;1071;52.544;13.374;2023-06-22T12:33:10;29.10;78.50
2130;DHT22;1071;52.544;13.374;2023-06-22T12:35:43;29.10;78.70
2130;DHT22;1071;52.544;13.374;2023-06-22T12:38:11;29.00;79.20
2130;DHT22;1071;52.544;13.374;2023-06-22T12:40:41;29.10;79.70
2130;DHT22;1071;52.544;13.374;2023-06-22T12:43:10;29.10;79.70
2130;DHT22;1071;52.544;13.374;2023-06-22T12:45:37;29.00;78.50
2130;DHT22;1071;52.544;13.374;2023-06-22T12:48:06;29.10;78.60
2130;DHT22;1071;52.544;13.374;2023-06-22T12:50:34;29.10;78.30
2130;DHT22;1071;52.544;13.374;2023-06-22T12:53:02;29.10;78.00
2130;DHT22;1071;52.544;13.374;2023-06-22T12:55:31;29.00;78.50
2130;DHT22;1071;52.544;13.374;2023-06-22T12:58:04;29.10;79.00
2130;DHT22;1071;52.544;13.374;2023-06-22T13:00:33;29.00;79.20
2130;DHT22;1071;52.544;13.374;2023-06-22T13:03:02;29.00;78.90
2130;DHT22;1071;52.544;13.374;2023-06-22T13:05:31;29.00;78.90
2130;DHT22;1071;52.544;13.374;2023-06-22T13:08:00;29.00;79.20
2130;DHT22;1071;52.544;13.374;2023-06-22T13:10:29;29.00;78.90
2130;DHT22;1071;52.544;13.374;2023-06-22T13:12:56;29.00;78.90
2130;DHT22;1071;52.544;13.374;2023-06-22T13:15:28;29.00;79.20
2130;DHT22;1071;52.544;13.374;2023-06-22T13:17:57;29.00;79.10
2130;DHT22;1071;52.544;13.374;2023-06-22T13:20:24;29.10;79.30
2130;DHT22;1071;52.544;13.374;2023-06-22T13:22:53;29.10;79.20
2130;DHT22;1071;52.544;13.374;2023-06-22T13:25:24;29.10;78.90
2130;DHT22;1071;52.544;13.374;2023-06-22T13:27:56;29.10;78.90
2130;DHT22;1071;52.544;13.374;2023-06-22T13:30:23;29.00;79.20
2130;DHT22;1071;52.544;13.374;2023-06-22T13:32:49;29.10;79.80
2130;DHT22;1071;52.544;13.374;2023-06-22T13:35:16;29.10;79.30
2130;DHT22;1071;52.544;13.374;2023-06-22T13:37:44;29.00;79.20
2130;DHT22;1071;52.544;13.374;2023-06-22T13:40:12;29.00;79.20
2130;DHT22;1071;52.544;13.374;2023-06-22T13:42:40;29.10;79.20
2130;DHT22;1071;52.544;13.374;2023-06-22T13:45:08;29.10;79.10
2130;DHT22;1071;52.544;13.374;2023-06-22T13:47:35;29.20;79.50
2130;DHT22;1071;52.544;13.374;2023-06-22T13:50:02;29.10;79.10
2130;DHT22;1071;52.544;13.374;2023-06-22T13:52:33;29.20;78.90
2130;DHT22;1071;52.544;13.374;2023-06-22T13:55:02;29.20;79.30
2130;DHT22;1071;52.544;13.374;2023-06-22T13:57:38;29.20;79.60
2130;DHT22;1071;52.544;13.374;2023-06-22T14:00:06;29.20;79.60
2130;DHT22;1071;52.544;13.374;2023-06-22T14:02:33;29.20;79.20
2130;DHT22;1071;52.544;13.374;2023-06-22T14:05:06;29.10;79.10
2130;DHT22;1071;52.544;13.374;2023-06-22T14:07:33;29.10;79.10
2130;DHT22;1071;52.544;13.374;2023-06-22T14:10:01;29.10;79.30
2130;DHT22;1071;52.544;13.374;2023-06-22T14:12:30;29.10;79.20
2130;DHT22;1071;52.544;13.374;2023-06-22T14:14:58;29.10;79.80
2130;DHT22;1071;52.544;13.374;2023-06-22T14:17:25;29.10;80.50
2130;DHT22;1071;52.544;13.374;2023-06-22T14:19:52;29.10;79.60
2130;DHT22;1071;52.544;13.374;2023-06-22T14:22:20;29.10;79.40
2130;DHT22;1071;52.544;13.374;2023-06-22T14:24:47;29.10;79.60
2130;DHT22;1071;52.544;13.374;2023-06-22T14:27:15;29.10;79.50
2130;DHT22;1071;52.544;13.374;2023-06-22T14:29:42;29.10;79.50
2130;DHT22;1071;52.544;13.374;2023-06-22T14:32:21;29.10;79.90
2130;DHT22;1071;52.544;13.374;2023-06-22T14:34:50;29.00;80.00
2130;DHT22;1071;52.544;13.374;2023-06-22T14:37:17;29.00;79.50
2130;DHT22;1071;52.544;13.374;2023-06-22T14:39:46;29.00;80.10
2130;DHT22;1071;52.544;13.374;2023-06-22T14:42:23;29.00;79.90
2130;DHT22;1071;52.544;13.374;2023-06-22T14:44:54;29.00;80.20
2130;DHT22;1071;52.544;13.374;2023-06-22T14:47:22;28.90;80.80
2130;DHT22;1071;52.544;13.374;2023-06-22T14:49:49;28.90;79.90
2130;DHT22;1071;52.544;13.374;2023-06-22T14:52:16;28.90;80.20
2130;DHT22;1071;52.544;13.374;2023-06-22T14:54:56;28.90;80.10
2130;DHT22;1071;52.544;13.374;2023-06-22T14:57:26;28.90;80.50
2130;DHT22;1071;52.544;13.374;2023-06-22T14:59:55;28.90;80.30
2130;DHT22;1071;52.544;13.374;2023-06-22T15:02:24;28.90;80.50
2130;DHT22;1071;52.544;13.374;2023-06-22T15:04:59;28.80;80.00
2130;DHT22;1071;52.544;13.374;2023-06-22T15:07:26;28.90;80.50
2130;DHT22;1071;52.544;13.374;2023-06-22T15:10:01;28.90;80.80
2130;DHT22;1071;52.544;13.374;2023-06-22T15:12:38;28.90;80.50
2130;DHT22;1071;52.544;13.374;2023-06-22T15:15:07;28.90;80.40
2130;DHT22;1071;52.544;13.374;2023-06-22T15:17:37;28.90;80.60
2130;DHT22;1071;52.544;13.374;2023-06-22T15:20:04;28.90;80.60
2130;DHT22;1071;52.544;13.374;2023-06-22T15:22:50;28.80;80.70
2130;DHT22;1071;52.544;13.374;2023-06-22T15:25:28;28.90;80.90
2130;DHT22;1071;52.544;13.374;2023-06-22T15:27:55;28.90;80.60
2130;DHT22;1071;52.544;13.374;2023-06-22T15:30:22;28.90;80.40
2130;DHT22;1071;52.544;13.374;2023-06-22T15:32:52;28.90;80.70
2130;DHT22;1071;52.544;13.374;2023-06-22T15:35:25;28.90;80.90
2130;DHT22;1071;52.544;13.374;2023-06-22T15:37:52;28.80;80.90
2130;DHT22;1071;52.544;13.374;2023-06-22T15:40:28;28.80;81.10
2130;DHT22;1071;52.544;13.374;2023-06-22T15:43:03;28.80;81.20
2130;DHT22;1071;52.544;13.374;2023-06-22T15:45:32;28.80;81.60
2130;DHT22;1071;52.544;13.374;2023-06-22T15:48:03;28.70;81.30
2130;DHT22;1071;52.544;13.374;2023-06-22T15:50:59;28.80;81.20
2130;DHT22;1071;52.544;13.374;2023-06-22T15:53:32;28.70;81.50
2130;DHT22;1071;52.544;13.374;2023-06-22T15:56:17;28.80;81.60
2130;DHT22;1071;52.544;13.374;2023-06-22T16:02:05;28.70;82.00
2130;DHT22;1071;52.544;13.374;2023-06-22T16:04:34;28.70;82.00
2130;DHT22;1071;52.544;13.374;2023-06-22T16:07:02;28.60;82.30
2130;DHT22;1071;52.544;13.374;2023-06-22T16:09:29;28.60;82.70
2130;DHT22;1071;52.544;13.374;2023-06-22T16:11:56;28.60;82.90
2130;DHT22;1071;52.544;13.374;2023-06-22T16:14:24;28.60;83.00
2130;DHT22;1071;52.544;13.374;2023-06-22T16:17:07;28.60;83.10